createdAt,value
2017-03-25T00:00:03.984Z,8.68
2017-03-25T00:00:08.183Z,8.63
2017-03-25T00:00:12.610Z,8.54
2017-03-25T00:00:17.088Z,8.67
2017-03-25T00:00:21.396Z,8.64
2017-03-25T00:00:25.822Z,8.61
2017-03-25T00:00:30.250Z,8.65
2017-03-25T00:00:34.577Z,8.64
2017-03-25T00:00:39.005Z,8.64
2017-03-25T00:00:43.431Z,8.64
2017-03-25T00:00:47.739Z,8.6
2017-03-25T00:00:52.176Z,8.63
2017-03-25T00:00:56.606Z,8.6
2017-03-25T00:01:01.033Z,8.65
2017-03-25T00:01:05.665Z,8.63
2017-03-25T00:01:09.979Z,8.63
2017-03-25T00:01:14.288Z,8.55
2017-03-25T00:01:18.483Z,8.61
2017-03-25T00:01:22.684Z,8.65
2017-03-25T00:01:26.990Z,8.6
2017-03-25T00:01:31.419Z,8.65
2017-03-25T00:01:35.853Z,8.65
2017-03-25T00:01:40.167Z,8.65
2017-03-25T00:01:44.591Z,8.63
2017-03-25T00:01:48.903Z,8.65
2017-03-25T00:01:53.099Z,8.63
2017-03-25T00:01:57.532Z,8.61
2017-03-25T00:02:01.960Z,8.63
2017-03-25T00:02:06.388Z,8.64
2017-03-25T00:02:10.863Z,8.65
2017-03-25T00:02:15.287Z,8.65
2017-03-25T00:02:19.591Z,8.57
2017-03-25T00:02:24.014Z,8.55
2017-03-25T00:02:28.490Z,8.64
2017-03-25T00:02:32.920Z,8.64
2017-03-25T00:02:37.226Z,8.61
2017-03-25T00:02:41.532Z,8.61
2017-03-25T00:02:45.960Z,8.57
2017-03-25T00:02:50.379Z,8.7
2017-03-25T00:02:54.571Z,8.65
2017-03-25T00:02:58.881Z,8.54
2017-03-25T00:03:03.310Z,8.65
2017-03-25T00:03:07.733Z,8.67
2017-03-25T00:03:12.160Z,8.67
2017-03-25T00:03:16.470Z,8.61
2017-03-25T00:03:20.900Z,8.65
2017-03-25T00:03:25.324Z,8.65
2017-03-25T00:03:29.745Z,8.61
2017-03-25T00:03:34.171Z,8.64
2017-03-25T00:03:38.393Z,8.63
2017-03-25T00:03:42.818Z,8.63
2017-03-25T00:03:47.242Z,8.57
2017-03-25T00:03:51.552Z,8.68
2017-03-25T00:03:55.875Z,8.65
2017-03-25T00:04:00.303Z,8.63
2017-03-25T00:04:04.732Z,8.63
2017-03-25T00:04:09.162Z,8.65
2017-03-25T00:04:13.585Z,8.6
2017-03-25T00:04:18.010Z,8.61
2017-03-25T00:04:22.325Z,8.65
2017-03-25T00:04:26.632Z,8.65
2017-03-25T00:04:31.055Z,8.64
2017-03-25T00:04:35.375Z,8.64
2017-03-25T00:04:39.566Z,8.64
2017-03-25T00:04:44.001Z,8.61
2017-03-25T00:04:47.968Z,8.65
2017-03-25T00:04:52.401Z,8.63
2017-03-25T00:04:56.826Z,8.6
2017-03-25T00:05:01.247Z,8.57
2017-03-25T00:05:05.567Z,8.64
2017-03-25T00:05:09.993Z,8.57
2017-03-25T00:05:14.325Z,8.65
2017-03-25T00:05:18.768Z,8.57
2017-03-25T00:05:23.209Z,8.57
2017-03-25T00:05:27.427Z,8.68
2017-03-25T00:05:31.756Z,8.67
2017-03-25T00:05:36.103Z,8.61
2017-03-25T00:05:40.553Z,8.57
2017-03-25T00:05:44.869Z,8.57
2017-03-25T00:05:49.316Z,8.64
2017-03-25T00:05:53.640Z,8.54
2017-03-25T00:05:58.088Z,8.63
2017-03-25T00:06:02.522Z,8.64
2017-03-25T00:06:06.958Z,8.63
2017-03-25T00:06:11.158Z,8.61
2017-03-25T00:06:15.486Z,8.67
2017-03-25T00:06:19.915Z,8.64
2017-03-25T00:06:24.240Z,8.68
2017-03-25T00:06:28.443Z,8.64
2017-03-25T00:06:32.790Z,8.67
2017-03-25T00:06:37.154Z,8.58
2017-03-25T00:06:41.368Z,8.61
2017-03-25T00:06:45.690Z,8.63
2017-03-25T00:06:50.039Z,8.63
2017-03-25T00:06:54.123Z,8.63
2017-03-25T00:06:58.324Z,8.65
2017-03-25T00:07:02.907Z,8.63
2017-03-25T00:07:07.267Z,8.64
2017-03-25T00:07:11.700Z,8.6
2017-03-25T00:07:15.906Z,8.63
2017-03-25T00:07:20.251Z,8.65
2017-03-25T00:07:24.588Z,8.64
2017-03-25T00:07:29.030Z,8.64
2017-03-25T00:07:33.142Z,8.63
2017-03-25T00:07:37.464Z,8.67
2017-03-25T00:07:41.791Z,8.68
2017-03-25T00:07:46.000Z,8.64
2017-03-25T00:07:50.212Z,8.64
2017-03-25T00:07:54.657Z,8.64
2017-03-25T00:07:59.105Z,8.65
2017-03-25T00:08:03.335Z,8.68
2017-03-25T00:08:07.675Z,8.64
2017-03-25T00:08:12.122Z,8.65
2017-03-25T00:08:16.450Z,8.64
2017-03-25T00:08:20.782Z,8.58
2017-03-25T00:08:25.110Z,8.67
2017-03-25T00:08:29.435Z,8.65
2017-03-25T00:08:33.650Z,8.65
2017-03-25T00:08:37.979Z,8.67
2017-03-25T00:08:42.312Z,8.68
2017-03-25T00:08:46.637Z,8.65
2017-03-25T00:08:50.962Z,8.61
2017-03-25T00:08:55.276Z,8.68
2017-03-25T00:08:59.486Z,8.7
2017-03-25T00:09:04.026Z,8.64
2017-03-25T00:09:08.477Z,8.7
2017-03-25T00:09:12.964Z,8.67
2017-03-25T00:09:17.289Z,8.61
2017-03-25T00:09:21.607Z,8.65
2017-03-25T00:09:26.051Z,8.65
2017-03-25T00:09:30.489Z,8.65
2017-03-25T00:09:34.811Z,8.64
2017-03-25T00:09:39.249Z,8.64
2017-03-25T00:09:43.459Z,8.64
2017-03-25T00:09:47.782Z,8.65
2017-03-25T00:09:52.102Z,8.6
2017-03-25T00:09:56.541Z,8.67
2017-03-25T00:10:00.989Z,8.68
2017-03-25T00:10:05.358Z,8.67
2017-03-25T00:10:09.556Z,8.64
2017-03-25T00:10:13.868Z,8.7
2017-03-25T00:10:17.862Z,8.68
2017-03-25T00:10:22.189Z,8.7
2017-03-25T00:10:26.276Z,8.6
2017-03-25T00:10:30.589Z,8.61
2017-03-25T00:10:34.908Z,8.64
2017-03-25T00:10:39.115Z,8.65
2017-03-25T00:10:43.430Z,8.65
2017-03-25T00:10:47.634Z,8.67
2017-03-25T00:10:52.071Z,8.67
2017-03-25T00:10:56.460Z,8.65
2017-03-25T00:11:00.898Z,8.65
2017-03-25T00:11:05.528Z,8.67
2017-03-25T00:11:09.768Z,8.67
2017-03-25T00:11:14.221Z,8.7
2017-03-25T00:11:18.538Z,8.68
2017-03-25T00:11:22.773Z,8.65
2017-03-25T00:11:27.218Z,8.64
2017-03-25T00:11:31.448Z,8.7
2017-03-25T00:11:35.785Z,8.67
2017-03-25T00:11:39.995Z,8.68
2017-03-25T00:11:44.445Z,8.7
2017-03-25T00:11:48.869Z,8.63
2017-03-25T00:11:53.293Z,8.64
2017-03-25T00:11:57.749Z,8.73
2017-03-25T00:12:02.203Z,8.65
2017-03-25T00:12:06.545Z,8.65
2017-03-25T00:12:10.864Z,8.65
2017-03-25T00:12:15.166Z,8.67
2017-03-25T00:12:19.367Z,8.65
2017-03-25T00:12:23.797Z,8.7
2017-03-25T00:12:28.222Z,8.7
2017-03-25T00:12:32.647Z,8.7
2017-03-25T00:12:37.074Z,8.65
2017-03-25T00:12:41.492Z,8.64
2017-03-25T00:12:45.805Z,8.65
2017-03-25T00:12:50.231Z,8.73
2017-03-25T00:12:54.540Z,8.65
2017-03-25T00:12:58.737Z,8.7
2017-03-25T00:13:03.213Z,8.64
2017-03-25T00:13:07.640Z,8.64
2017-03-25T00:13:12.061Z,8.63
2017-03-25T00:13:16.363Z,8.61
2017-03-25T00:13:20.681Z,8.68
2017-03-25T00:13:25.153Z,8.68
2017-03-25T00:13:29.577Z,8.61
2017-03-25T00:13:34.004Z,8.65
2017-03-25T00:13:38.433Z,8.67
2017-03-25T00:13:42.740Z,8.67
2017-03-25T00:13:46.941Z,8.65
2017-03-25T00:13:51.364Z,8.65
2017-03-25T00:13:55.793Z,8.63
2017-03-25T00:14:00.221Z,8.68
2017-03-25T00:14:04.651Z,8.7
2017-03-25T00:14:08.848Z,8.6
2017-03-25T00:14:13.286Z,8.68
2017-03-25T00:14:17.641Z,8.64
2017-03-25T00:14:21.952Z,8.71
2017-03-25T00:14:26.150Z,8.64
2017-03-25T00:14:30.581Z,8.64
2017-03-25T00:14:34.772Z,8.64
2017-03-25T00:14:39.211Z,8.67
2017-03-25T00:14:43.634Z,8.65
2017-03-25T00:14:48.057Z,8.65
2017-03-25T00:14:52.368Z,8.68
2017-03-25T00:14:56.679Z,8.64
2017-03-25T00:15:01.107Z,8.67
2017-03-25T00:15:05.415Z,8.65
2017-03-25T00:15:09.839Z,8.65
2017-03-25T00:15:14.036Z,8.68
2017-03-25T00:15:18.344Z,8.64
2017-03-25T00:15:22.536Z,8.64
2017-03-25T00:15:26.845Z,8.64
2017-03-25T00:15:31.270Z,8.65
2017-03-25T00:15:35.707Z,8.67
2017-03-25T00:15:40.134Z,8.67
2017-03-25T00:15:44.565Z,8.63
2017-03-25T00:15:48.874Z,8.67
2017-03-25T00:15:53.191Z,8.67
2017-03-25T00:15:57.618Z,8.65
2017-03-25T00:16:02.047Z,8.65
2017-03-25T00:16:06.359Z,8.68
2017-03-25T00:16:10.595Z,8.61
2017-03-25T00:16:15.018Z,8.68
2017-03-25T00:16:19.210Z,8.67
2017-03-25T00:16:23.521Z,8.68
2017-03-25T00:16:28.000Z,8.63
2017-03-25T00:16:32.433Z,8.64
2017-03-25T00:16:36.874Z,8.67
2017-03-25T00:16:41.210Z,8.68
2017-03-25T00:16:45.643Z,8.64
2017-03-25T00:16:49.955Z,8.68
2017-03-25T00:16:54.386Z,8.7
2017-03-25T00:16:58.809Z,8.65
2017-03-25T00:17:03.238Z,8.68
2017-03-25T00:17:07.562Z,8.7
2017-03-25T00:17:12.027Z,8.65
2017-03-25T00:17:16.471Z,8.67
2017-03-25T00:17:20.666Z,8.65
2017-03-25T00:17:25.098Z,8.67
2017-03-25T00:17:29.527Z,8.71
2017-03-25T00:17:33.960Z,8.63
2017-03-25T00:17:38.387Z,8.7
2017-03-25T00:17:42.825Z,8.73
2017-03-25T00:17:47.260Z,8.75
2017-03-25T00:17:51.576Z,8.71
2017-03-25T00:17:55.884Z,8.65
2017-03-25T00:18:00.323Z,8.73
2017-03-25T00:18:04.768Z,8.67
2017-03-25T00:18:09.200Z,8.67
2017-03-25T00:18:13.627Z,8.71
2017-03-25T00:18:17.831Z,8.67
2017-03-25T00:18:22.150Z,8.63
2017-03-25T00:18:26.459Z,8.75
2017-03-25T00:18:30.883Z,8.65
2017-03-25T00:18:35.324Z,8.64
2017-03-25T00:18:39.755Z,8.78
2017-03-25T00:18:44.178Z,8.71
2017-03-25T00:18:48.605Z,8.7
2017-03-25T00:18:52.805Z,8.7
2017-03-25T00:18:57.241Z,8.75
2017-03-25T00:19:01.869Z,8.78
2017-03-25T00:19:06.189Z,8.75
2017-03-25T00:19:10.687Z,8.73
2017-03-25T00:19:15.110Z,8.68
2017-03-25T00:19:19.539Z,8.61
2017-03-25T00:19:24.010Z,8.68
2017-03-25T00:19:28.323Z,8.64
2017-03-25T00:19:32.744Z,8.75
2017-03-25T00:19:36.941Z,8.7
2017-03-25T00:19:41.354Z,8.64
2017-03-25T00:19:45.866Z,8.7
2017-03-25T00:19:50.291Z,8.71
2017-03-25T00:19:54.593Z,8.67
2017-03-25T00:19:59.024Z,8.64
2017-03-25T00:20:03.458Z,8.67
2017-03-25T00:20:07.646Z,8.7
2017-03-25T00:20:12.080Z,8.67
2017-03-25T00:20:16.393Z,8.63
2017-03-25T00:20:20.601Z,8.65
2017-03-25T00:20:24.929Z,8.71
2017-03-25T00:20:29.238Z,8.67
2017-03-25T00:20:33.428Z,8.71
2017-03-25T00:20:37.866Z,8.67
2017-03-25T00:20:42.291Z,8.7
2017-03-25T00:20:46.715Z,8.71
2017-03-25T00:20:51.150Z,8.68
2017-03-25T00:20:55.465Z,8.7
2017-03-25T00:20:59.895Z,8.68
2017-03-25T00:21:04.506Z,8.61
2017-03-25T00:21:08.822Z,8.7
2017-03-25T00:21:13.249Z,8.65
2017-03-25T00:21:17.676Z,8.67
2017-03-25T00:21:22.156Z,8.67
2017-03-25T00:21:26.586Z,8.64
2017-03-25T00:21:30.837Z,8.68
2017-03-25T00:21:35.155Z,8.64
2017-03-25T00:21:39.580Z,8.73
2017-03-25T00:21:44.012Z,8.58
2017-03-25T00:21:48.432Z,8.67
2017-03-25T00:21:52.857Z,8.67
2017-03-25T00:21:57.281Z,8.73
2017-03-25T00:22:01.807Z,8.71
2017-03-25T00:22:06.237Z,8.65
2017-03-25T00:22:10.668Z,8.71
2017-03-25T00:22:15.091Z,8.67
2017-03-25T00:22:19.289Z,8.65
2017-03-25T00:22:23.479Z,8.7
2017-03-25T00:22:27.899Z,8.64
2017-03-25T00:22:32.333Z,8.64
2017-03-25T00:22:36.768Z,8.65
2017-03-25T00:22:41.074Z,8.68
2017-03-25T00:22:45.510Z,8.71
2017-03-25T00:22:49.938Z,8.63
2017-03-25T00:22:54.363Z,8.65
2017-03-25T00:22:58.788Z,8.65
2017-03-25T00:23:03.221Z,8.68
2017-03-25T00:23:07.645Z,8.68
2017-03-25T00:23:12.071Z,8.65
2017-03-25T00:23:16.500Z,8.67
2017-03-25T00:23:20.931Z,8.63
2017-03-25T00:23:25.353Z,8.65
2017-03-25T00:23:29.663Z,8.63
2017-03-25T00:23:34.116Z,8.68
2017-03-25T00:23:38.478Z,8.64
2017-03-25T00:23:42.913Z,8.63
2017-03-25T00:23:47.344Z,8.67
2017-03-25T00:23:51.771Z,8.58
2017-03-25T00:23:56.080Z,8.65
2017-03-25T00:24:00.508Z,8.68
2017-03-25T00:24:05.048Z,8.64
2017-03-25T00:24:09.127Z,8.64
2017-03-25T00:24:13.560Z,8.55
2017-03-25T00:24:17.979Z,8.67
2017-03-25T00:24:22.284Z,8.6
2017-03-25T00:24:26.743Z,8.65
2017-03-25T00:24:31.055Z,8.64
2017-03-25T00:24:35.489Z,8.65
2017-03-25T00:24:39.920Z,8.63
2017-03-25T00:24:44.351Z,8.63
2017-03-25T00:24:48.786Z,8.64
2017-03-25T00:24:52.984Z,8.61
2017-03-25T00:24:57.410Z,8.64
2017-03-25T00:25:01.849Z,8.52
2017-03-25T00:25:06.276Z,8.61
2017-03-25T00:25:10.701Z,8.58
2017-03-25T00:25:15.017Z,8.6
2017-03-25T00:25:19.335Z,8.6
2017-03-25T00:25:23.763Z,8.58
2017-03-25T00:25:28.192Z,8.63
2017-03-25T00:25:32.634Z,8.6
2017-03-25T00:25:37.062Z,8.58
2017-03-25T00:25:41.500Z,8.5
2017-03-25T00:25:45.941Z,8.63
2017-03-25T00:25:50.022Z,8.6
2017-03-25T00:25:54.453Z,8.6
2017-03-25T00:25:58.926Z,8.58
2017-03-25T00:26:03.561Z,8.6
2017-03-25T00:26:07.872Z,8.55
2017-03-25T00:26:12.314Z,8.54
2017-03-25T00:26:16.742Z,8.64
2017-03-25T00:26:20.932Z,8.6
2017-03-25T00:26:25.356Z,8.6
2017-03-25T00:26:29.727Z,8.57
2017-03-25T00:26:34.162Z,8.55
2017-03-25T00:26:38.477Z,8.6
2017-03-25T00:26:42.905Z,8.65
2017-03-25T00:26:47.225Z,8.55
2017-03-25T00:26:51.430Z,8.58
2017-03-25T00:26:55.857Z,8.57
2017-03-25T00:27:00.282Z,8.57
2017-03-25T00:27:04.867Z,8.52
2017-03-25T00:27:09.300Z,8.6
2017-03-25T00:27:13.617Z,8.55
2017-03-25T00:27:17.927Z,8.55
2017-03-25T00:27:22.246Z,8.6
2017-03-25T00:27:26.552Z,8.55
2017-03-25T00:27:30.983Z,8.6
2017-03-25T00:27:35.453Z,8.55
2017-03-25T00:27:39.533Z,8.55
2017-03-25T00:27:43.961Z,8.6
2017-03-25T00:27:48.388Z,8.57
2017-03-25T00:27:52.855Z,8.57
2017-03-25T00:27:57.276Z,8.58
2017-03-25T00:28:01.697Z,8.63
2017-03-25T00:28:06.122Z,8.6
2017-03-25T00:28:10.548Z,8.61
2017-03-25T00:28:14.739Z,8.57
2017-03-25T00:28:19.156Z,8.61
2017-03-25T00:28:23.583Z,8.58
2017-03-25T00:28:27.891Z,8.64
2017-03-25T00:28:32.195Z,8.58
2017-03-25T00:28:36.623Z,8.52
2017-03-25T00:28:40.935Z,8.54
2017-03-25T00:28:45.242Z,8.57
2017-03-25T00:28:49.669Z,8.55
2017-03-25T00:28:54.093Z,8.58
2017-03-25T00:28:58.524Z,8.57
2017-03-25T00:29:03.003Z,8.57
2017-03-25T00:29:07.435Z,8.58
2017-03-25T00:29:11.864Z,8.57
2017-03-25T00:29:16.169Z,8.5
2017-03-25T00:29:20.355Z,8.55
2017-03-25T00:29:24.656Z,8.58
2017-03-25T00:29:29.085Z,8.57
2017-03-25T00:29:33.571Z,8.57
2017-03-25T00:29:37.999Z,8.54
2017-03-25T00:29:42.434Z,8.6
2017-03-25T00:29:46.867Z,8.61
2017-03-25T00:29:51.296Z,8.57
2017-03-25T00:29:55.602Z,8.55
2017-03-25T00:30:00.025Z,8.58
2017-03-25T00:30:04.456Z,8.55
2017-03-25T00:30:08.924Z,8.5
2017-03-25T00:30:13.229Z,8.58
2017-03-25T00:30:17.422Z,8.55
2017-03-25T00:30:21.854Z,8.58
2017-03-25T00:30:26.049Z,8.54
2017-03-25T00:30:30.361Z,8.61
2017-03-25T00:30:34.800Z,8.6
2017-03-25T00:30:39.114Z,8.6
2017-03-25T00:30:43.428Z,8.55
2017-03-25T00:30:47.855Z,8.58
2017-03-25T00:30:52.301Z,8.55
2017-03-25T00:30:56.728Z,8.52
2017-03-25T00:31:01.156Z,8.6
2017-03-25T00:31:05.640Z,8.52
2017-03-25T00:31:09.991Z,8.58
2017-03-25T00:31:14.412Z,8.58
2017-03-25T00:31:18.724Z,8.58
2017-03-25T00:31:23.165Z,8.55
2017-03-25T00:31:27.594Z,8.58
2017-03-25T00:31:31.909Z,8.54
2017-03-25T00:31:36.393Z,8.61
2017-03-25T00:31:40.819Z,8.58
2017-03-25T00:31:45.246Z,8.58
2017-03-25T00:31:49.673Z,8.55
2017-03-25T00:31:54.031Z,8.58
2017-03-25T00:31:58.452Z,8.58
2017-03-25T00:32:03.010Z,8.58
2017-03-25T00:32:07.330Z,8.6
2017-03-25T00:32:11.762Z,8.58
2017-03-25T00:32:16.068Z,8.58
2017-03-25T00:32:20.489Z,8.55
2017-03-25T00:32:24.689Z,8.6
2017-03-25T00:32:29.113Z,8.6
2017-03-25T00:32:33.540Z,8.55
2017-03-25T00:32:37.966Z,8.55
2017-03-25T00:32:42.390Z,8.61
2017-03-25T00:32:46.824Z,8.58
2017-03-25T00:32:51.247Z,8.6
2017-03-25T00:32:55.669Z,8.57
2017-03-25T00:33:00.096Z,8.61
2017-03-25T00:33:04.294Z,8.61
2017-03-25T00:33:08.723Z,8.57
2017-03-25T00:33:13.146Z,8.58
2017-03-25T00:33:17.568Z,8.57
2017-03-25T00:33:21.806Z,8.6
2017-03-25T00:33:26.114Z,8.6
2017-03-25T00:33:30.418Z,8.57
2017-03-25T00:33:34.851Z,8.6
2017-03-25T00:33:39.286Z,8.57
2017-03-25T00:33:43.709Z,8.57
2017-03-25T00:33:48.172Z,8.58
2017-03-25T00:33:52.486Z,8.57
2017-03-25T00:33:56.800Z,8.57
2017-03-25T00:34:01.228Z,8.58
2017-03-25T00:34:06.004Z,8.61
2017-03-25T00:34:10.434Z,8.55
2017-03-25T00:34:14.858Z,8.61
2017-03-25T00:34:19.173Z,8.57
2017-03-25T00:34:23.596Z,8.57
2017-03-25T00:34:28.029Z,8.54
2017-03-25T00:34:32.333Z,8.6
2017-03-25T00:34:36.766Z,8.6
2017-03-25T00:34:41.191Z,8.52
2017-03-25T00:34:45.621Z,8.57
2017-03-25T00:34:50.049Z,8.58
2017-03-25T00:34:54.478Z,8.55
2017-03-25T00:34:58.778Z,8.55
2017-03-25T00:35:03.257Z,8.61
2017-03-25T00:35:07.566Z,8.58
2017-03-25T00:35:11.996Z,8.63
2017-03-25T00:35:16.420Z,8.6
2017-03-25T00:35:20.854Z,8.63
2017-03-25T00:35:25.291Z,8.58
2017-03-25T00:35:29.713Z,8.6
2017-03-25T00:35:34.023Z,8.64
2017-03-25T00:35:38.451Z,8.58
2017-03-25T00:35:42.886Z,8.55
2017-03-25T00:35:47.310Z,8.55
2017-03-25T00:35:51.502Z,8.54
2017-03-25T00:35:55.930Z,8.63
2017-03-25T00:36:00.361Z,8.61
2017-03-25T00:36:04.792Z,8.58
2017-03-25T00:36:08.989Z,8.63
2017-03-25T00:36:13.307Z,8.6
2017-03-25T00:36:17.625Z,8.58
2017-03-25T00:36:21.939Z,8.64
2017-03-25T00:36:26.368Z,8.58
2017-03-25T00:36:30.680Z,8.65
2017-03-25T00:36:35.119Z,8.68
2017-03-25T00:36:39.549Z,8.65
2017-03-25T00:36:43.975Z,8.55
2017-03-25T00:36:48.435Z,8.61
2017-03-25T00:36:52.869Z,8.57
2017-03-25T00:36:57.295Z,8.58
2017-03-25T00:37:01.776Z,8.58
2017-03-25T00:37:06.084Z,8.6
2017-03-25T00:37:10.507Z,8.57
2017-03-25T00:37:14.814Z,8.55
2017-03-25T00:37:19.245Z,8.65
2017-03-25T00:37:23.440Z,8.57
2017-03-25T00:37:27.868Z,8.55
2017-03-25T00:37:32.300Z,8.67
2017-03-25T00:37:36.744Z,8.63
2017-03-25T00:37:40.938Z,8.64
2017-03-25T00:37:45.363Z,8.67
2017-03-25T00:37:49.673Z,8.58
2017-03-25T00:37:54.096Z,8.61
2017-03-25T00:37:58.541Z,8.65
2017-03-25T00:38:02.965Z,8.6
2017-03-25T00:38:07.388Z,8.55
2017-03-25T00:38:11.574Z,8.65
2017-03-25T00:38:15.996Z,8.6
2017-03-25T00:38:20.463Z,8.61
2017-03-25T00:38:24.894Z,8.61
2017-03-25T00:38:29.319Z,8.64
2017-03-25T00:38:33.674Z,8.63
2017-03-25T00:38:38.097Z,8.61
2017-03-25T00:38:42.517Z,8.58
2017-03-25T00:38:46.746Z,8.63
2017-03-25T00:38:51.174Z,8.61
2017-03-25T00:38:55.479Z,8.54
2017-03-25T00:38:59.914Z,8.61
2017-03-25T00:39:04.531Z,8.6
2017-03-25T00:39:08.956Z,8.61
2017-03-25T00:39:13.264Z,8.6
2017-03-25T00:39:17.572Z,8.61
2017-03-25T00:39:21.759Z,8.55
2017-03-25T00:39:26.184Z,8.5
2017-03-25T00:39:30.607Z,8.6
2017-03-25T00:39:34.934Z,8.54
2017-03-25T00:39:39.253Z,8.63
2017-03-25T00:39:43.937Z,8.63
2017-03-25T00:39:48.246Z,8.6
2017-03-25T00:39:52.571Z,8.57
2017-03-25T00:39:56.995Z,8.55
2017-03-25T00:40:01.415Z,8.63
2017-03-25T00:40:05.728Z,8.52
2017-03-25T00:40:10.073Z,8.57
2017-03-25T00:40:14.499Z,8.64
2017-03-25T00:40:18.809Z,8.6
2017-03-25T00:40:23.116Z,8.63
2017-03-25T00:40:27.445Z,8.55
2017-03-25T00:40:31.871Z,8.64
2017-03-25T00:40:36.179Z,8.6
2017-03-25T00:40:40.608Z,8.58
2017-03-25T00:40:44.804Z,8.64
2017-03-25T00:40:49.224Z,8.57
2017-03-25T00:40:53.657Z,8.6
2017-03-25T00:40:58.082Z,8.55
2017-03-25T00:41:02.512Z,8.55
2017-03-25T00:41:06.987Z,8.57
2017-03-25T00:41:11.410Z,8.55
2017-03-25T00:41:15.850Z,8.58
2017-03-25T00:41:20.279Z,8.65
2017-03-25T00:41:24.714Z,8.64
2017-03-25T00:41:29.136Z,8.64
2017-03-25T00:41:33.571Z,8.55
2017-03-25T00:41:38.000Z,8.58
2017-03-25T00:41:42.305Z,8.58
2017-03-25T00:41:46.618Z,8.57
2017-03-25T00:41:51.061Z,8.55
2017-03-25T00:41:55.368Z,8.55
2017-03-25T00:41:59.793Z,8.64
2017-03-25T00:42:04.221Z,8.55
2017-03-25T00:42:08.651Z,8.61
2017-03-25T00:42:12.847Z,8.61
2017-03-25T00:42:17.198Z,8.61
2017-03-25T00:42:21.273Z,8.58
2017-03-25T00:42:25.583Z,8.58
2017-03-25T00:42:30.004Z,8.6
2017-03-25T00:42:34.435Z,8.57
2017-03-25T00:42:38.745Z,8.63
2017-03-25T00:42:43.059Z,8.61
2017-03-25T00:42:47.481Z,8.54
2017-03-25T00:42:51.913Z,8.63
2017-03-25T00:42:56.338Z,8.6
2017-03-25T00:43:00.769Z,8.61
2017-03-25T00:43:05.197Z,8.55
2017-03-25T00:43:09.618Z,8.55
2017-03-25T00:43:14.045Z,8.6
2017-03-25T00:43:18.479Z,8.55
2017-03-25T00:43:22.906Z,8.58
2017-03-25T00:43:27.328Z,8.58
2017-03-25T00:43:31.639Z,8.58
2017-03-25T00:43:35.959Z,8.54
2017-03-25T00:43:40.377Z,8.57
2017-03-25T00:43:44.687Z,8.6
2017-03-25T00:43:49.114Z,8.58
2017-03-25T00:43:53.538Z,8.63
2017-03-25T00:43:57.964Z,8.6
2017-03-25T00:44:02.587Z,8.6
2017-03-25T00:44:07.055Z,8.64
2017-03-25T00:44:11.364Z,8.55
2017-03-25T00:44:15.674Z,8.64
2017-03-25T00:44:19.989Z,8.58
2017-03-25T00:44:24.415Z,8.58
2017-03-25T00:44:28.854Z,8.54
2017-03-25T00:44:33.321Z,8.57
2017-03-25T00:44:37.752Z,8.6
2017-03-25T00:44:42.193Z,8.55
2017-03-25T00:44:46.618Z,8.55
2017-03-25T00:44:51.042Z,8.6
2017-03-25T00:44:55.357Z,8.58
2017-03-25T00:44:59.820Z,8.55
2017-03-25T00:45:04.133Z,8.57
2017-03-25T00:45:08.561Z,8.58
2017-03-25T00:45:12.988Z,8.58
2017-03-25T00:45:17.178Z,8.57
2017-03-25T00:45:21.602Z,8.58
2017-03-25T00:45:25.673Z,8.58
2017-03-25T00:45:30.107Z,8.58
2017-03-25T00:45:34.552Z,8.57
2017-03-25T00:45:38.981Z,8.6
2017-03-25T00:45:43.425Z,8.5
2017-03-25T00:45:47.849Z,8.52
2017-03-25T00:45:52.162Z,8.57
2017-03-25T00:45:56.592Z,8.58
2017-03-25T00:46:01.022Z,8.55
2017-03-25T00:46:05.549Z,8.65
2017-03-25T00:46:09.864Z,8.6
2017-03-25T00:46:14.114Z,8.55
2017-03-25T00:46:18.419Z,8.58
2017-03-25T00:46:22.730Z,8.58
2017-03-25T00:46:27.043Z,8.58
2017-03-25T00:46:31.478Z,8.55
2017-03-25T00:46:35.902Z,8.54
2017-03-25T00:46:40.328Z,8.54
2017-03-25T00:46:44.640Z,8.55
2017-03-25T00:46:48.956Z,8.55
2017-03-25T00:46:53.151Z,8.54
2017-03-25T00:46:57.583Z,8.55
2017-03-25T00:47:02.084Z,8.58
2017-03-25T00:47:06.512Z,8.58
2017-03-25T00:47:10.942Z,8.58
2017-03-25T00:47:15.254Z,8.58
2017-03-25T00:47:19.606Z,8.58
2017-03-25T00:47:23.914Z,8.6
2017-03-25T00:47:28.342Z,8.61
2017-03-25T00:47:32.782Z,8.6
2017-03-25T00:47:37.205Z,8.6
2017-03-25T00:47:41.513Z,8.57
2017-03-25T00:47:45.815Z,8.52
2017-03-25T00:47:50.247Z,8.6
2017-03-25T00:47:54.560Z,8.63
2017-03-25T00:47:58.980Z,8.57
2017-03-25T00:48:03.403Z,8.57
2017-03-25T00:48:07.724Z,8.58
2017-03-25T00:48:12.159Z,8.58
2017-03-25T00:48:16.465Z,8.61
2017-03-25T00:48:20.663Z,8.6
2017-03-25T00:48:25.098Z,8.55
2017-03-25T00:48:29.523Z,8.55
2017-03-25T00:48:33.840Z,8.52
2017-03-25T00:48:38.268Z,8.6
2017-03-25T00:48:42.697Z,8.52
2017-03-25T00:48:47.007Z,8.55
2017-03-25T00:48:51.448Z,8.63
2017-03-25T00:48:55.873Z,8.54
2017-03-25T00:49:00.308Z,8.58
2017-03-25T00:49:04.990Z,8.54
2017-03-25T00:49:09.294Z,8.55
2017-03-25T00:49:13.596Z,8.54
2017-03-25T00:49:17.906Z,8.57
2017-03-25T00:49:22.216Z,8.57
2017-03-25T00:49:26.666Z,8.54
2017-03-25T00:49:31.105Z,8.55
2017-03-25T00:49:35.423Z,8.63
2017-03-25T00:49:39.847Z,8.57
2017-03-25T00:49:44.340Z,8.57
2017-03-25T00:49:48.772Z,8.58
2017-03-25T00:49:53.087Z,8.58
2017-03-25T00:49:57.509Z,8.58
2017-03-25T00:50:01.932Z,8.47
2017-03-25T00:50:06.238Z,8.55
2017-03-25T00:50:10.428Z,8.57
2017-03-25T00:50:14.736Z,8.55
2017-03-25T00:50:18.974Z,8.54
2017-03-25T00:50:23.400Z,8.6
2017-03-25T00:50:27.825Z,8.58
2017-03-25T00:50:32.258Z,8.52
2017-03-25T00:50:36.570Z,8.49
2017-03-25T00:50:41.002Z,8.5
2017-03-25T00:50:45.475Z,8.57
2017-03-25T00:50:49.902Z,8.54
2017-03-25T00:50:54.321Z,8.46
2017-03-25T00:50:58.637Z,8.52
2017-03-25T00:51:02.950Z,8.49
2017-03-25T00:51:07.376Z,8.57
2017-03-25T00:51:11.803Z,8.49
2017-03-25T00:51:16.232Z,8.6
2017-03-25T00:51:20.588Z,8.47
2017-03-25T00:51:24.891Z,8.55
2017-03-25T00:51:29.313Z,8.52
2017-03-25T00:51:33.511Z,8.55
2017-03-25T00:51:37.937Z,8.49
2017-03-25T00:51:42.129Z,8.57
2017-03-25T00:51:46.555Z,8.55
2017-03-25T00:51:50.975Z,8.47
2017-03-25T00:51:55.403Z,8.49
2017-03-25T00:51:59.595Z,8.47
2017-03-25T00:52:03.908Z,8.46
2017-03-25T00:52:08.095Z,8.49
2017-03-25T00:52:12.535Z,8.49
2017-03-25T00:52:17.002Z,8.5
2017-03-25T00:52:21.429Z,8.52
2017-03-25T00:52:25.854Z,8.5
2017-03-25T00:52:30.302Z,8.49
2017-03-25T00:52:34.741Z,8.47
2017-03-25T00:52:39.049Z,8.49
2017-03-25T00:52:43.482Z,8.54
2017-03-25T00:52:47.792Z,8.46
2017-03-25T00:52:52.103Z,8.54
2017-03-25T00:52:56.415Z,8.54
2017-03-25T00:53:00.842Z,8.49
2017-03-25T00:53:05.280Z,8.54
2017-03-25T00:53:09.704Z,8.47
2017-03-25T00:53:14.130Z,8.47
2017-03-25T00:53:18.444Z,8.49
2017-03-25T00:53:22.872Z,8.55
2017-03-25T00:53:27.294Z,8.5
2017-03-25T00:53:31.719Z,8.52
2017-03-25T00:53:36.158Z,8.49
2017-03-25T00:53:40.578Z,8.5
2017-03-25T00:53:45.008Z,8.47
2017-03-25T00:53:49.208Z,8.5
2017-03-25T00:53:53.632Z,8.47
2017-03-25T00:53:58.053Z,8.58
2017-03-25T00:54:02.584Z,8.47
2017-03-25T00:54:07.021Z,8.47
2017-03-25T00:54:11.446Z,8.49
2017-03-25T00:54:15.869Z,8.47
2017-03-25T00:54:20.288Z,8.47
2017-03-25T00:54:24.602Z,8.49
2017-03-25T00:54:29.023Z,8.49
2017-03-25T00:54:33.334Z,8.47
2017-03-25T00:54:37.293Z,8.49
2017-03-25T00:54:41.724Z,8.54
2017-03-25T00:54:46.152Z,8.5
2017-03-25T00:54:50.577Z,8.45
2017-03-25T00:54:55.000Z,8.45
2017-03-25T00:54:59.429Z,8.45
2017-03-25T00:55:04.202Z,8.47
2017-03-25T00:55:08.625Z,8.46
2017-03-25T00:55:13.047Z,8.49
2017-03-25T00:55:17.481Z,8.49
2017-03-25T00:55:21.838Z,8.46
2017-03-25T00:55:26.262Z,8.49
2017-03-25T00:55:30.573Z,8.5
2017-03-25T00:55:34.765Z,8.54
2017-03-25T00:55:39.191Z,8.47
2017-03-25T00:55:43.500Z,8.47
2017-03-25T00:55:47.807Z,8.45
2017-03-25T00:55:52.238Z,8.46
2017-03-25T00:55:56.681Z,8.46
2017-03-25T00:56:01.109Z,8.43
2017-03-25T00:56:05.636Z,8.46
2017-03-25T00:56:09.708Z,8.46
2017-03-25T00:56:14.139Z,8.5
2017-03-25T00:56:18.444Z,8.46
2017-03-25T00:56:22.636Z,8.49
2017-03-25T00:56:27.060Z,8.5
2017-03-25T00:56:31.492Z,8.49
2017-03-25T00:56:35.917Z,8.49
2017-03-25T00:56:40.223Z,8.5
2017-03-25T00:56:44.660Z,8.5
2017-03-25T00:56:48.982Z,8.46
2017-03-25T00:56:53.413Z,8.46
2017-03-25T00:56:57.837Z,8.46
2017-03-25T00:57:02.510Z,8.5
2017-03-25T00:57:06.948Z,8.43
2017-03-25T00:57:11.380Z,8.54
2017-03-25T00:57:15.686Z,8.47
2017-03-25T00:57:19.994Z,8.5
2017-03-25T00:57:24.422Z,8.45
2017-03-25T00:57:28.851Z,8.47
2017-03-25T00:57:33.280Z,8.45
2017-03-25T00:57:37.591Z,8.49
2017-03-25T00:57:42.019Z,8.47
2017-03-25T00:57:46.441Z,8.39
2017-03-25T00:57:50.876Z,8.52
2017-03-25T00:57:55.312Z,8.39
2017-03-25T00:57:59.737Z,8.52
2017-03-25T00:58:04.261Z,8.45
2017-03-25T00:58:08.453Z,8.52
2017-03-25T00:58:12.871Z,8.43
2017-03-25T00:58:17.063Z,8.49
2017-03-25T00:58:21.484Z,8.49
2017-03-25T00:58:25.949Z,8.49
2017-03-25T00:58:30.141Z,8.5
2017-03-25T00:58:34.567Z,8.43